createdAt,value
2017-10-20T00:01:18.399Z,7.03
2017-10-20T00:03:45.463Z,6.30
2017-10-20T00:06:11.583Z,7.07
2017-10-20T00:08:37.692Z,6.57
2017-10-20T00:14:00.766Z,7.10
2017-10-20T00:16:27.051Z,6.73
2017-10-20T00:18:53.334Z,7.93
2017-10-20T00:21:19.599Z,6.90
2017-10-20T00:23:45.905Z,6.70
2017-10-20T00:26:12.291Z,6.90
2017-10-20T00:28:38.560Z,6.63
2017-10-20T00:31:04.874Z,6.13
2017-10-20T00:33:32.918Z,6.57
2017-10-20T00:35:59.212Z,6.20
2017-10-20T00:38:25.524Z,6.13
2017-10-20T00:40:52.506Z,6.47
2017-10-20T00:43:18.770Z,5.77
2017-10-20T00:45:46.136Z,6.00
2017-10-20T00:48:12.983Z,5.70
2017-10-20T00:50:39.083Z,5.87
2017-10-20T00:53:05.901Z,6.30
2017-10-20T00:55:31.978Z,6.30
2017-10-20T00:57:58.068Z,5.03
2017-10-20T01:00:24.902Z,6.50
2017-10-20T01:02:51.005Z,6.30
2017-10-20T01:05:17.288Z,7.23
2017-10-20T01:07:43.571Z,5.57
2017-10-20T01:10:09.890Z,6.17
2017-10-20T01:12:36.142Z,6.00
2017-10-20T01:15:02.468Z,6.90
2017-10-20T01:17:28.774Z,7.40
2017-10-20T01:19:55.060Z,5.93
2017-10-20T01:22:21.367Z,6.17
2017-10-20T01:24:48.407Z,6.13
2017-10-20T01:27:15.472Z,6.27
2017-10-20T01:29:42.299Z,6.07
2017-10-20T01:32:08.579Z,5.70
2017-10-20T01:34:35.879Z,6.20
2017-10-20T01:37:02.709Z,6.53
2017-10-20T01:39:28.808Z,6.07
2017-10-20T01:41:54.901Z,6.57
2017-10-20T01:44:20.989Z,6.10
2017-10-20T01:46:47.082Z,6.90
2017-10-20T01:49:13.165Z,6.10
2017-10-20T01:51:39.487Z,6.13
2017-10-20T01:54:06.515Z,6.50
2017-10-20T01:56:33.401Z,6.03
2017-10-20T01:58:59.485Z,6.70
2017-10-20T02:01:26.334Z,6.97
2017-10-20T02:03:52.420Z,6.43
2017-10-20T02:06:19.547Z,6.30
2017-10-20T02:08:45.658Z,6.03
2017-10-20T02:11:11.785Z,6.70
2017-10-20T02:13:39.145Z,6.10
2017-10-20T02:16:05.448Z,5.77
2017-10-20T02:18:32.459Z,6.13
2017-10-20T02:20:59.330Z,5.60
2017-10-20T02:23:25.455Z,5.80
2017-10-20T02:25:51.558Z,5.93
2017-10-20T02:28:18.395Z,5.80
2017-10-20T02:30:44.466Z,5.37
2017-10-20T02:33:10.771Z,6.27
2017-10-20T02:35:37.851Z,5.50
2017-10-20T02:38:03.934Z,5.33
2017-10-20T02:40:30.941Z,5.57
2017-10-20T02:42:57.079Z,5.77
2017-10-20T02:45:23.366Z,5.93
2017-10-20T02:47:49.474Z,5.37
2017-10-20T02:50:16.476Z,6.20
2017-10-20T02:52:42.844Z,5.10
2017-10-20T02:55:09.141Z,5.33
2017-10-20T02:57:36.167Z,6.23
2017-10-20T03:00:02.363Z,5.63
2017-10-20T03:02:28.649Z,6.10
2017-10-20T03:04:54.938Z,6.50
2017-10-20T03:07:21.242Z,5.37
2017-10-20T03:09:47.544Z,5.50
2017-10-20T03:12:14.573Z,6.73
2017-10-20T03:14:41.611Z,5.43
2017-10-20T03:17:08.006Z,5.63
2017-10-20T03:19:34.510Z,5.63
2017-10-20T03:22:00.811Z,5.30
2017-10-20T03:24:27.907Z,5.10
2017-10-20T03:26:54.915Z,5.70
2017-10-20T03:29:21.738Z,5.77
2017-10-20T03:31:48.583Z,5.43
2017-10-20T03:34:15.435Z,5.10
2017-10-20T03:36:41.558Z,5.30
2017-10-20T03:39:08.437Z,7.07
2017-10-20T03:41:34.543Z,5.30
2017-10-20T03:44:00.614Z,5.90
2017-10-20T03:46:26.734Z,5.70
2017-10-20T03:48:53.593Z,5.87
2017-10-20T03:51:19.673Z,4.90
2017-10-20T03:53:45.791Z,6.03
2017-10-20T03:56:11.899Z,6.23
2017-10-20T03:58:38.073Z,5.60
2017-10-20T04:01:05.019Z,4.87
2017-10-20T04:03:31.279Z,5.20
2017-10-20T04:05:58.335Z,5.60
2017-10-20T04:08:25.445Z,6.23
2017-10-20T04:10:51.547Z,5.83
2017-10-20T04:13:17.921Z,5.47
2017-10-20T04:15:45.019Z,5.93
2017-10-20T04:18:11.338Z,5.20
2017-10-20T04:20:37.635Z,5.40
2017-10-20T04:23:04.676Z,5.30
2017-10-20T04:25:30.946Z,6.00
2017-10-20T04:27:57.305Z,6.00
2017-10-20T04:30:23.634Z,5.37
2017-10-20T04:32:49.953Z,5.70
2017-10-20T04:35:16.263Z,6.07
2017-10-20T04:37:42.612Z,4.90
2017-10-20T04:40:08.893Z,5.90
2017-10-20T04:42:35.455Z,5.17
2017-10-20T04:45:01.832Z,5.87
2017-10-20T04:47:28.115Z,5.90
2017-10-20T04:49:54.397Z,5.60
2017-10-20T04:52:20.703Z,5.43
2017-10-20T04:54:46.971Z,5.60
2017-10-20T04:57:13.328Z,5.20
2017-10-20T04:59:39.669Z,5.23
2017-10-20T05:02:05.965Z,6.10
2017-10-20T05:04:32.260Z,5.60
2017-10-20T05:06:58.543Z,6.40
2017-10-20T05:09:24.817Z,6.47
2017-10-20T05:11:51.119Z,6.80
2017-10-20T05:14:17.608Z,6.77
2017-10-20T05:16:43.894Z,6.33
2017-10-20T05:19:10.202Z,6.73
2017-10-20T05:21:36.470Z,6.30
2017-10-20T05:24:02.738Z,8.03
2017-10-20T05:26:29.071Z,7.73
2017-10-20T05:28:55.329Z,7.93
2017-10-20T05:31:21.610Z,9.03
2017-10-20T05:33:47.900Z,8.27
2017-10-20T05:36:14.276Z,8.50
2017-10-20T05:38:40.610Z,9.17
2017-10-20T05:41:06.916Z,9.37
2017-10-20T05:43:33.202Z,9.60
2017-10-20T05:45:59.475Z,10.30
2017-10-20T05:48:25.758Z,11.67
2017-10-20T05:50:52.833Z,10.63
2017-10-20T05:53:19.900Z,11.10
2017-10-20T05:55:46.309Z,12.60
2017-10-20T05:58:12.573Z,12.07
2017-10-20T06:00:38.878Z,11.47
2017-10-20T06:03:05.874Z,11.70
2017-10-20T06:05:32.131Z,12.77
2017-10-20T06:07:58.427Z,12.73
2017-10-20T06:10:24.733Z,12.60
2017-10-20T06:12:51.762Z,11.63
2017-10-20T06:15:18.059Z,12.27
2017-10-20T06:17:44.342Z,11.93
2017-10-20T06:20:10.614Z,11.33
2017-10-20T06:22:36.885Z,11.40
2017-10-20T06:25:03.171Z,12.10
2017-10-20T06:27:29.455Z,11.40
2017-10-20T06:29:55.731Z,11.53
2017-10-20T06:32:22.023Z,11.00
2017-10-20T06:34:48.321Z,10.07
2017-10-20T06:37:15.948Z,10.93
2017-10-20T06:39:42.222Z,12.40
2017-10-20T06:42:09.687Z,11.70
2017-10-20T06:44:36.834Z,12.80
2017-10-20T06:47:02.914Z,12.57
2017-10-20T06:49:29.758Z,12.67
2017-10-20T06:51:56.789Z,13.43
2017-10-20T06:54:23.642Z,13.00
2017-10-20T06:56:50.559Z,12.27
2017-10-20T06:59:16.626Z,13.60
2017-10-20T07:01:42.856Z,13.07
2017-10-20T07:04:09.151Z,13.60
2017-10-20T07:06:36.300Z,14.20
2017-10-20T07:09:02.595Z,14.73
2017-10-20T07:11:28.868Z,14.50
2017-10-20T07:13:57.043Z,15.30
2017-10-20T07:16:23.867Z,14.40
2017-10-20T07:18:56.919Z,13.87
2017-10-20T07:21:23.242Z,13.60
2017-10-20T07:23:49.567Z,13.70
2017-10-20T07:26:19.627Z,12.10
2017-10-20T07:28:45.976Z,12.83
2017-10-20T07:31:12.273Z,13.37
2017-10-20T07:33:38.588Z,13.63
2017-10-20T07:36:05.056Z,12.63
2017-10-20T07:38:33.294Z,12.73
2017-10-20T07:40:59.559Z,13.37
2017-10-20T07:43:25.875Z,13.93
2017-10-20T07:45:52.110Z,12.53
2017-10-20T07:48:19.153Z,12.03
2017-10-20T07:50:45.464Z,12.90
2017-10-20T07:53:12.475Z,12.93
2017-10-20T07:55:38.766Z,11.20
2017-10-20T07:58:05.400Z,10.70
2017-10-20T08:00:31.683Z,10.53
2017-10-20T08:02:57.970Z,10.70
2017-10-20T08:05:24.983Z,10.30
2017-10-20T08:07:51.262Z,10.60
2017-10-20T08:10:17.697Z,10.43
2017-10-20T08:12:44.011Z,10.50
2017-10-20T08:15:10.323Z,10.13
2017-10-20T08:17:36.573Z,9.97
2017-10-20T08:20:03.605Z,9.43
2017-10-20T08:22:31.710Z,9.27
2017-10-20T08:24:57.991Z,9.80
2017-10-20T08:27:24.262Z,9.20
2017-10-20T08:29:50.584Z,9.60
2017-10-20T08:32:16.871Z,8.80
2017-10-20T08:34:43.147Z,8.30
2017-10-20T08:37:09.435Z,9.00
2017-10-20T08:39:36.447Z,7.87
2017-10-20T08:42:02.776Z,7.30
2017-10-20T08:44:29.075Z,8.80
2017-10-20T08:46:55.403Z,8.20
2017-10-20T08:49:21.694Z,8.13
2017-10-20T08:51:48.004Z,8.67
2017-10-20T08:54:14.303Z,8.30
2017-10-20T08:56:40.632Z,7.60
2017-10-20T08:59:07.622Z,8.43
2017-10-20T09:01:33.863Z,8.87
2017-10-20T09:04:00.858Z,8.90
2017-10-20T09:06:27.129Z,7.80
2017-10-20T09:08:53.502Z,7.80
2017-10-20T09:11:19.770Z,7.40
2017-10-20T09:13:46.813Z,7.97
2017-10-20T09:16:13.094Z,7.63
2017-10-20T09:18:39.343Z,8.10
2017-10-20T09:21:05.594Z,7.70
2017-10-20T09:23:32.676Z,8.00
2017-10-20T09:25:59.738Z,7.90
2017-10-20T09:28:26.020Z,8.00
2017-10-20T09:30:52.283Z,7.50
2017-10-20T09:33:18.538Z,7.00
2017-10-20T09:35:44.816Z,6.20
2017-10-20T09:38:11.836Z,6.20
2017-10-20T09:40:38.138Z,6.50
2017-10-20T09:43:04.434Z,6.00
2017-10-20T09:45:30.735Z,4.37
2017-10-20T09:47:57.036Z,5.03
2017-10-20T09:50:23.419Z,3.70
2017-10-20T09:52:49.695Z,3.63
2017-10-20T09:55:15.944Z,4.00
2017-10-20T09:57:42.231Z,4.30
2017-10-20T10:00:08.511Z,4.00
2017-10-20T10:02:35.523Z,4.80
2017-10-20T10:05:06.551Z,4.30
2017-10-20T10:07:32.828Z,3.50
2017-10-20T10:09:59.116Z,3.77
2017-10-20T10:12:25.414Z,2.80
2017-10-20T10:14:51.805Z,3.63
2017-10-20T10:17:18.847Z,3.37
2017-10-20T10:19:45.110Z,6.50
2017-10-20T10:22:11.408Z,3.73
2017-10-20T10:24:37.695Z,3.50
2017-10-20T10:27:03.977Z,3.27
2017-10-20T10:29:31.011Z,3.50
2017-10-20T10:31:57.303Z,2.90
2017-10-20T10:34:23.602Z,3.50
2017-10-20T10:36:50.614Z,3.73
2017-10-20T10:39:17.639Z,4.20
2017-10-20T10:41:49.774Z,4.00
2017-10-20T10:44:16.157Z,5.43
2017-10-20T10:46:43.230Z,4.60
2017-10-20T10:49:11.654Z,5.83
2017-10-20T10:51:38.971Z,4.93
2017-10-20T10:54:05.267Z,4.87
2017-10-20T10:56:32.281Z,5.30
2017-10-20T10:59:02.003Z,5.30
2017-10-20T11:01:28.255Z,4.00
2017-10-20T11:03:55.287Z,5.07
2017-10-20T11:06:34.575Z,3.80
2017-10-20T11:09:13.194Z,3.00
2017-10-20T11:11:51.714Z,2.50
2017-10-20T11:14:18.010Z,2.10
2017-10-20T11:16:44.304Z,1.70
2017-10-20T11:19:11.400Z,2.10
2017-10-20T11:21:38.400Z,2.10
2017-10-20T11:24:05.435Z,1.90
2017-10-20T11:26:31.738Z,2.23
2017-10-20T11:28:58.046Z,2.50
2017-10-20T11:31:24.313Z,2.07
2017-10-20T11:33:50.598Z,1.70
2017-10-20T11:36:16.944Z,2.07
2017-10-20T11:38:43.214Z,1.63
2017-10-20T11:41:09.490Z,1.90
2017-10-20T11:43:35.775Z,2.33
2017-10-20T11:46:02.794Z,2.10
2017-10-20T11:48:29.150Z,2.40
2017-10-20T11:50:56.200Z,2.03
2017-10-20T11:53:22.481Z,2.23
2017-10-20T11:55:48.784Z,1.80
2017-10-20T11:58:15.073Z,1.60
2017-10-20T12:00:41.369Z,1.60
2017-10-20T12:03:08.607Z,1.90
2017-10-20T12:05:34.914Z,1.20
2017-10-20T12:08:01.215Z,1.27
2017-10-20T12:10:28.231Z,1.80
2017-10-20T12:12:54.581Z,1.93
2017-10-20T12:15:21.608Z,1.53
2017-10-20T12:17:47.921Z,1.50
2017-10-20T12:20:14.176Z,1.57
2017-10-20T12:22:40.462Z,1.70
2017-10-20T12:25:06.759Z,1.90
2017-10-20T12:27:33.774Z,1.53
2017-10-20T12:30:00.776Z,1.73
2017-10-20T12:32:28.860Z,1.40
2017-10-20T12:34:55.158Z,1.60
2017-10-20T12:37:30.558Z,1.67
2017-10-20T12:39:56.827Z,2.63
2017-10-20T12:42:23.833Z,1.83
2017-10-20T12:44:50.113Z,1.87
2017-10-20T12:47:16.409Z,1.97
2017-10-20T12:49:43.424Z,1.53
2017-10-20T12:52:09.731Z,1.70
2017-10-20T12:54:36.065Z,1.50
2017-10-20T12:57:02.466Z,1.50
2017-10-20T12:59:29.488Z,1.50
2017-10-20T13:01:56.513Z,1.57
2017-10-20T13:04:22.843Z,1.57
2017-10-20T13:06:49.198Z,1.40
2017-10-20T13:09:16.226Z,1.60
2017-10-20T13:11:42.598Z,1.70
2017-10-20T13:14:08.889Z,1.30
2017-10-20T13:16:36.246Z,1.60
2017-10-20T13:19:02.530Z,1.37
2017-10-20T13:21:28.859Z,1.30
2017-10-20T13:23:55.174Z,1.40
2017-10-20T13:26:21.456Z,1.30
2017-10-20T13:28:47.690Z,1.60
2017-10-20T13:31:14.805Z,1.50
2017-10-20T13:33:41.166Z,2.10
2017-10-20T13:36:07.458Z,1.60
2017-10-20T13:38:33.771Z,1.37
2017-10-20T13:41:00.052Z,1.20
2017-10-20T13:43:27.067Z,1.47
2017-10-20T13:45:53.340Z,1.77
2017-10-20T13:48:20.389Z,1.60
2017-10-20T13:50:47.353Z,1.47
2017-10-20T13:53:13.639Z,1.60
2017-10-20T13:55:39.919Z,1.27
2017-10-20T13:58:06.188Z,1.30
2017-10-20T14:00:32.478Z,1.63
2017-10-20T14:02:58.762Z,1.20
2017-10-20T14:05:25.789Z,1.83
2017-10-20T14:07:52.035Z,1.67
2017-10-20T14:10:18.287Z,1.60
2017-10-20T14:12:44.533Z,1.10
2017-10-20T14:15:10.861Z,1.67
2017-10-20T14:17:37.151Z,1.97
2017-10-20T14:20:04.157Z,2.07
2017-10-20T14:22:30.443Z,1.30
2017-10-20T14:24:56.730Z,1.20
2017-10-20T14:27:23.062Z,1.70
2017-10-20T14:29:49.307Z,1.30
2017-10-20T14:32:15.570Z,1.17
2017-10-20T14:34:41.826Z,1.90
2017-10-20T14:37:08.111Z,2.00
2017-10-20T14:39:34.378Z,1.50
2017-10-20T14:42:00.651Z,1.33
2017-10-20T14:44:26.800Z,1.50
2017-10-20T14:46:52.903Z,1.67
2017-10-20T14:49:19.706Z,1.60
2017-10-20T14:51:45.767Z,1.50
2017-10-20T14:54:12.762Z,1.10
2017-10-20T14:56:39.112Z,1.10
2017-10-20T14:59:05.370Z,1.60
2017-10-20T15:01:32.389Z,1.20
2017-10-20T15:03:58.674Z,1.60
2017-10-20T15:06:24.958Z,1.43
2017-10-20T15:08:51.181Z,1.43
2017-10-20T15:11:17.435Z,1.20
2017-10-20T15:13:43.755Z,1.57
2017-10-20T15:16:11.023Z,1.80
2017-10-20T15:18:37.304Z,1.60
2017-10-20T15:21:03.642Z,1.60
2017-10-20T15:23:29.891Z,2.20
2017-10-20T15:25:56.138Z,1.40
2017-10-20T15:28:22.451Z,1.60
2017-10-20T15:30:49.446Z,1.40
2017-10-20T15:33:15.708Z,1.40
2017-10-20T15:35:42.004Z,1.53
2017-10-20T15:38:08.286Z,1.33
2017-10-20T15:40:36.910Z,1.53
2017-10-20T15:43:03.951Z,1.27
2017-10-20T15:45:30.287Z,1.40
2017-10-20T15:47:57.318Z,1.90
2017-10-20T15:50:23.683Z,1.40
2017-10-20T15:52:50.710Z,1.60
2017-10-20T15:55:16.771Z,1.77
2017-10-20T15:57:43.579Z,1.50
2017-10-20T16:00:09.774Z,1.30
2017-10-20T16:02:36.142Z,2.20
2017-10-20T16:05:02.424Z,1.50
2017-10-20T16:07:28.701Z,1.93
2017-10-20T16:09:55.734Z,2.20
2017-10-20T16:12:22.034Z,1.37
2017-10-20T16:14:50.222Z,1.20
2017-10-20T16:17:16.593Z,3.50
2017-10-20T16:19:42.840Z,1.37
2017-10-20T16:22:09.179Z,2.87
2017-10-20T16:24:36.568Z,1.60
2017-10-20T16:27:03.923Z,1.70
2017-10-20T16:29:30.207Z,1.47
2017-10-20T16:31:56.483Z,1.83
2017-10-20T16:34:22.735Z,2.40
2017-10-20T16:36:49.789Z,2.40
2017-10-20T16:39:16.387Z,1.70
2017-10-20T16:41:42.810Z,1.70
2017-10-20T16:44:09.079Z,1.57
2017-10-20T16:46:35.379Z,1.80
2017-10-20T16:49:01.621Z,1.60
2017-10-20T16:51:27.908Z,2.00
2017-10-20T16:53:54.198Z,1.90
2017-10-20T16:56:21.252Z,1.60
2017-10-20T16:58:47.783Z,1.53
2017-10-20T17:01:14.094Z,1.63
2017-10-20T17:03:40.386Z,2.00
2017-10-20T17:06:06.645Z,2.30
2017-10-20T17:08:33.001Z,1.37
2017-10-20T17:11:00.013Z,1.87
2017-10-20T17:13:26.304Z,1.97
2017-10-20T17:15:53.679Z,1.97
2017-10-20T17:18:19.969Z,1.30
2017-10-20T17:20:46.315Z,1.63
2017-10-20T17:23:12.619Z,1.83
2017-10-20T17:25:39.623Z,2.00
2017-10-20T17:28:05.911Z,1.63
2017-10-20T17:30:32.255Z,1.53
2017-10-20T17:32:58.519Z,1.30
2017-10-20T17:35:25.619Z,1.70
2017-10-20T17:37:51.904Z,1.50
2017-10-20T17:40:18.230Z,1.97
2017-10-20T17:42:44.499Z,3.07
2017-10-20T17:45:10.810Z,2.70
2017-10-20T17:47:38.714Z,3.43
2017-10-20T17:50:05.031Z,2.57
2017-10-20T17:52:31.291Z,2.07
2017-10-20T17:54:57.560Z,3.37
2017-10-20T17:57:24.924Z,4.93
2017-10-20T17:59:51.410Z,2.53
2017-10-20T18:02:17.830Z,4.40
2017-10-20T18:04:44.137Z,2.60
2017-10-20T18:07:10.389Z,2.60
2017-10-20T18:09:36.666Z,2.87
2017-10-20T18:12:02.962Z,2.30
2017-10-20T18:14:29.335Z,1.90
2017-10-20T18:16:55.734Z,2.77
2017-10-20T18:19:23.121Z,2.53
2017-10-20T18:21:50.232Z,2.17
2017-10-20T18:24:16.620Z,2.33
2017-10-20T18:26:42.945Z,2.57
2017-10-20T18:29:09.226Z,2.80
2017-10-20T18:31:36.331Z,1.93
2017-10-20T18:34:02.633Z,2.63
2017-10-20T18:36:28.936Z,2.30
2017-10-20T18:38:55.975Z,1.90
2017-10-20T18:41:22.675Z,2.83
2017-10-20T18:43:49.424Z,2.13
2017-10-20T18:46:15.742Z,2.87
2017-10-20T18:48:42.011Z,2.10
2017-10-20T18:51:09.030Z,2.83
2017-10-20T18:53:35.734Z,2.73
2017-10-20T18:56:02.047Z,2.40
2017-10-20T18:58:28.341Z,3.00
2017-10-20T19:00:54.588Z,2.37
2017-10-20T19:03:21.614Z,2.07
2017-10-20T19:05:47.894Z,2.60
2017-10-20T19:08:14.196Z,1.80
2017-10-20T19:10:41.194Z,2.90
2017-10-20T19:13:07.711Z,2.50
2017-10-20T19:15:41.815Z,2.77
2017-10-20T19:18:07.938Z,2.17
2017-10-20T19:20:34.011Z,2.57
2017-10-20T19:23:00.849Z,2.60
2017-10-20T19:25:28.749Z,2.70
2017-10-20T19:27:54.895Z,2.13
2017-10-20T19:30:21.010Z,2.80
2017-10-20T19:32:47.086Z,2.40
2017-10-20T19:35:13.884Z,2.67
2017-10-20T19:37:39.973Z,2.83
2017-10-20T19:40:06.913Z,3.40
2017-10-20T19:42:33.027Z,2.40
2017-10-20T19:44:59.864Z,2.43
2017-10-20T19:47:26.761Z,2.93
2017-10-20T19:49:53.361Z,2.50
2017-10-20T19:52:19.740Z,2.60
2017-10-20T19:54:48.523Z,3.50
2017-10-20T19:57:14.809Z,2.47
2017-10-20T19:59:41.728Z,1.90
2017-10-20T20:02:09.088Z,2.70
2017-10-20T20:04:35.868Z,2.20
2017-10-20T20:07:02.513Z,2.30
2017-10-20T20:09:29.053Z,2.53
2017-10-20T20:11:55.636Z,2.77
2017-10-20T20:14:21.939Z,3.03
2017-10-20T20:16:49.664Z,2.53
2017-10-20T20:19:15.792Z,2.70
2017-10-20T20:21:41.924Z,2.67
2017-10-20T20:24:08.848Z,2.83
2017-10-20T20:26:36.018Z,2.87
2017-10-20T20:29:02.130Z,3.07
2017-10-20T20:31:28.302Z,2.87
2017-10-20T20:33:55.910Z,2.83
2017-10-20T20:36:22.174Z,3.00
2017-10-20T20:38:48.482Z,2.40
2017-10-20T20:41:14.745Z,2.50
2017-10-20T20:43:41.046Z,2.50
2017-10-20T20:46:07.447Z,2.77
2017-10-20T20:48:33.751Z,2.30
2017-10-20T20:51:00.082Z,2.93
2017-10-20T20:53:27.469Z,2.73
2017-10-20T20:55:53.725Z,2.40
2017-10-20T20:58:21.087Z,3.20
2017-10-20T21:00:47.416Z,2.73
2017-10-20T21:03:14.489Z,3.50
2017-10-20T21:05:41.385Z,2.93
2017-10-20T21:08:07.583Z,3.50
2017-10-20T21:10:33.699Z,3.40
2017-10-20T21:13:00.019Z,3.10
2017-10-20T21:15:26.158Z,2.90
2017-10-20T21:17:52.458Z,2.53
2017-10-20T21:20:18.752Z,3.40
2017-10-20T21:22:45.026Z,2.97
2017-10-20T21:25:12.046Z,3.40
2017-10-20T21:27:38.406Z,2.83
2017-10-20T21:30:04.778Z,2.77
2017-10-20T21:32:31.235Z,3.87
2017-10-20T21:34:57.508Z,3.13
2017-10-20T21:37:23.757Z,4.70
2017-10-20T21:39:50.024Z,3.50
2017-10-20T21:42:16.405Z,2.33
2017-10-20T21:44:42.715Z,3.97
2017-10-20T21:47:09.009Z,3.30
2017-10-20T21:49:35.274Z,3.00
2017-10-20T21:52:01.594Z,2.50
2017-10-20T21:54:27.894Z,2.50
2017-10-20T21:56:54.279Z,2.40
2017-10-20T21:59:20.567Z,2.00
2017-10-20T22:01:47.610Z,2.00
2017-10-20T22:04:14.850Z,2.60
2017-10-20T22:06:41.666Z,3.47
2017-10-20T22:09:07.867Z,2.57
2017-10-20T22:11:34.058Z,2.40
2017-10-20T22:14:00.888Z,2.90
2017-10-20T22:16:27.838Z,3.27
2017-10-20T22:18:54.646Z,3.40
2017-10-20T22:21:20.841Z,3.67
2017-10-20T22:23:46.917Z,4.63
2017-10-20T22:26:13.710Z,2.80
2017-10-20T22:28:39.776Z,3.10
2017-10-20T22:31:06.606Z,7.30
2017-10-20T22:33:32.870Z,2.60
2017-10-20T22:35:59.005Z,4.20
2017-10-20T22:38:25.075Z,2.30
2017-10-20T22:40:51.316Z,2.40
2017-10-20T22:43:17.402Z,3.00
2017-10-20T22:45:43.658Z,3.57
2017-10-20T22:48:09.924Z,4.43
2017-10-20T22:50:36.306Z,2.30
2017-10-20T22:53:02.583Z,2.57
2017-10-20T22:55:28.857Z,2.40
2017-10-20T22:57:55.642Z,2.83
2017-10-20T23:00:22.752Z,4.47
2017-10-20T23:02:49.026Z,2.27
2017-10-20T23:05:16.090Z,2.83
2017-10-20T23:07:42.402Z,4.90
2017-10-20T23:10:09.387Z,2.90
2017-10-20T23:12:35.549Z,2.67
2017-10-20T23:15:02.442Z,3.10
2017-10-20T23:17:28.514Z,3.73
2017-10-20T23:19:55.318Z,3.60
2017-10-20T23:22:21.391Z,3.07
2017-10-20T23:24:47.584Z,3.00
2017-10-20T23:27:13.839Z,2.60
2017-10-20T23:29:41.134Z,3.00
2017-10-20T23:32:07.234Z,2.83
2017-10-20T23:34:33.571Z,2.90
2017-10-20T23:36:59.855Z,2.50
2017-10-20T23:39:26.431Z,2.67
2017-10-20T23:41:53.562Z,2.87
2017-10-20T23:44:19.818Z,3.13
2017-10-20T23:46:45.922Z,2.50
2017-10-20T23:49:12.278Z,2.40
2017-10-20T23:51:39.630Z,2.53
2017-10-20T23:54:06.091Z,3.20
2017-10-20T23:56:32.551Z,2.30
2017-10-20T23:58:59.744Z,2.60
